Time,TemperatureF,DewpointF,PressureIn,WindDirection,WindDirectionDegrees,WindSpeedMPH,WindSpeedGustMPH,Humidity,HourlyPrecipIn,Conditions,Clouds,dailyrainin,SoftwareType,DateUTC
2013-02-03 00:00:00,30.4,29.1,30.02,WSW,248,2.0,9.0,95,0.00,,,0.17,VWS V14.01,2013-02-03 05:00:00,
2013-02-03 00:01:00,30.4,29.1,30.02,NW,306,3.0,9.0,95,0.00,,,0.17,VWS V14.01,2013-02-03 05:01:00,
2013-02-03 00:03:00,30.4,29.1,30.02,SW,222,0.0,9.0,95,0.00,,,0.17,VWS V14.01,2013-02-03 05:03:00,
2013-02-03 00:05:00,30.4,29.1,30.02,SW,222,0.0,9.0,95,0.00,,,0.17,VWS V14.01,2013-02-03 05:05:00,
2013-02-03 00:10:00,30.4,29.1,30.02,SW,222,1.0,9.0,95,0.00,,,0.00,VWS V14.01,2013-02-03 05:10:00,
2013-02-03 00:15:00,30.4,29.1,30.02,SSW,200,2.0,9.0,95,0.00,,,0.00,VWS V14.01,2013-02-03 05:15:00,
2013-02-03 00:20:00,30.4,29.1,30.02,NW,308,2.0,9.0,95,0.00,,,0.00,VWS V14.01,2013-02-03 05:20:00,
2013-02-03 00:25:00,30.6,29.3,30.02,NW,308,0.0,9.0,95,0.00,,,0.00,VWS V14.01,2013-02-03 05:25:00,
2013-02-03 00:30:00,30.6,29.3,30.02,WNW,286,2.0,9.0,95,0.00,,,0.00,VWS V14.01,2013-02-03 05:30:00,
2013-02-03 00:36:00,30.6,29.3,30.02,WNW,289,2.0,9.0,95,0.00,,,0.00,VWS V14.01,2013-02-03 05:36:00,
2013-02-03 00:41:00,30.4,28.9,30.02,West,276,1.0,9.0,94,0.00,,,0.00,VWS V14.01,2013-02-03 05:41:00,
2013-02-03 00:46:00,30.4,29.1,30.02,ENE,69,0.0,9.0,95,0.00,,,0.00,VWS V14.01,2013-02-03 05:46:00,
2013-02-03 00:51:00,30.4,28.9,30.02,SW,229,0.0,9.0,94,0.00,,,0.00,VWS V14.01,2013-02-03 05:51:00,
2013-02-03 00:56:00,30.4,29.1,30.02,NW,309,0.0,9.0,95,0.00,,,0.00,VWS V14.01,2013-02-03 05:56:00,
2013-02-03 01:01:00,30.4,29.1,30.02,West,265,1.0,9.0,95,0.00,,,0.00,VWS V14.01,2013-02-03 06:01:00,
2013-02-03 01:06:00,30.4,29.1,30.01,WNW,283,2.0,9.0,95,0.00,,,0.00,VWS V14.01,2013-02-03 06:06:00,
2013-02-03 01:11:00,30.4,29.1,30.01,North,360,3.0,9.0,95,0.00,,,0.00,VWS V14.01,2013-02-03 06:11:00,
2013-02-03 01:16:00,30.3,29.0,30.01,WNW,302,2.0,9.0,95,0.00,,,0.00,VWS V14.01,2013-02-03 06:16:00,
2013-02-03 01:21:00,30.3,29.0,30.01,WNW,297,2.0,9.0,95,0.00,,,0.00,VWS V14.01,2013-02-03 06:21:00,
2013-02-03 01:26:00,30.1,28.8,30.01,NW,311,2.0,9.0,95,0.00,,,0.00,VWS V14.01,2013-02-03 06:26:00,
2013-02-03 01:31:00,30.1,28.8,30.01,WNW,283,3.0,9.0,95,0.00,,,0.00,VWS V14.01,2013-02-03 06:31:00,
2013-02-03 01:36:00,30.1,28.8,30.01,North,11,2.0,9.0,95,0.00,,,0.00,VWS V14.01,2013-02-03 06:36:00,
2013-02-03 01:41:00,30.1,28.8,30.01,NNW,342,5.0,9.0,95,0.01,,,0.01,VWS V14.01,2013-02-03 06:41:00,
2013-02-03 01:46:00,30.0,28.7,30.01,NW,321,2.0,9.0,95,0.01,,,0.01,VWS V14.01,2013-02-03 06:46:00,
2013-02-03 01:51:00,30.0,28.7,30.01,NW,317,6.0,9.0,95,0.01,,,0.01,VWS V14.01,2013-02-03 06:51:00,
2013-02-03 01:56:00,30.0,28.7,30.01,SW,226,0.0,9.0,95,0.01,,,0.01,VWS V14.01,2013-02-03 06:56:00,
2013-02-03 02:02:00,30.0,28.7,30.01,NW,305,2.0,9.0,95,0.01,,,0.01,VWS V14.01,2013-02-03 07:02:00,
2013-02-03 02:07:00,30.0,29.0,30.01,NW,315,0.0,9.0,96,0.02,,,0.02,VWS V14.01,2013-02-03 07:07:00,
2013-02-03 02:12:00,30.0,29.0,30.01,West,278,1.0,9.0,96,0.02,,,0.02,VWS V14.01,2013-02-03 07:12:00,
2013-02-03 02:17:00,30.1,29.1,30.01,WNW,290,1.0,9.0,96,0.02,,,0.02,VWS V14.01,2013-02-03 07:17:00,
2013-02-03 02:22:00,30.1,29.1,29.99,West,268,1.0,9.0,96,0.02,,,0.02,VWS V14.01,2013-02-03 07:22:00,
2013-02-03 02:27:00,30.1,29.1,29.99,West,265,1.0,9.0,96,0.02,,,0.02,VWS V14.01,2013-02-03 07:27:00,
2013-02-03 02:32:00,30.1,29.1,29.99,West,273,3.0,9.0,96,0.02,,,0.02,VWS V14.01,2013-02-03 07:32:00,
2013-02-03 02:37:00,30.1,29.1,29.99,WSW,246,2.0,9.0,96,0.02,,,0.02,VWS V14.01,2013-02-03 07:37:00,
2013-02-03 02:42:00,30.1,29.1,29.99,WSW,237,2.0,9.0,96,0.01,,,0.02,VWS V14.01,2013-02-03 07:42:00,
2013-02-03 02:47:00,30.1,29.1,29.99,SW,230,1.0,9.0,96,0.01,,,0.02,VWS V14.01,2013-02-03 07:47:00,
2013-02-03 02:52:00,30.0,28.7,29.99,SW,220,0.0,9.0,95,0.01,,,0.02,VWS V14.01,2013-02-03 07:52:00,
2013-02-03 02:57:00,30.1,28.8,29.99,SW,227,2.0,9.0,95,0.01,,,0.02,VWS V14.01,2013-02-03 07:57:00,
2013-02-03 03:02:00,30.0,28.7,29.99,West,281,0.0,9.0,95,0.01,,,0.02,VWS V14.01,2013-02-03 08:02:00,
2013-02-03 03:07:00,30.0,28.7,29.99,SW,224,0.0,9.0,95,0.01,,,0.02,VWS V14.01,2013-02-03 08:07:00,
2013-02-03 03:12:00,29.8,28.5,29.99,SW,229,2.0,9.0,95,0.00,,,0.02,VWS V14.01,2013-02-03 08:12:00,
2013-02-03 03:17:00,29.8,28.3,29.99,WSW,250,2.0,9.0,94,0.00,,,0.02,VWS V14.01,2013-02-03 08:17:00,
2013-02-03 03:22:00,29.8,28.3,29.99,WNW,284,1.0,9.0,94,0.00,,,0.02,VWS V14.01,2013-02-03 08:22:00,
2013-02-03 03:27:00,29.7,28.2,29.99,SW,225,2.0,9.0,94,0.00,,,0.02,VWS V14.01,2013-02-03 08:27:00,
2013-02-03 03:32:00,29.7,27.9,29.99,SW,216,6.0,9.0,93,0.00,,,0.02,VWS V14.01,2013-02-03 08:32:00,
2013-02-03 03:37:00,29.7,27.9,29.99,SSW,208,0.0,9.0,93,0.00,,,0.02,VWS V14.01,2013-02-03 08:37:00,
2013-02-03 03:43:00,29.5,27.5,29.99,South,183,0.0,9.0,92,0.00,,,0.02,VWS V14.01,2013-02-03 08:43:00,
2013-02-03 03:48:00,29.5,27.5,29.99,SE,130,1.0,9.0,92,0.00,,,0.02,VWS V14.01,2013-02-03 08:48:00,
2013-02-03 03:53:00,29.5,27.2,29.99,SW,227,5.0,9.0,91,0.00,,,0.02,VWS V14.01,2013-02-03 08:53:00,
2013-02-03 03:58:00,29.4,27.1,29.99,SW,232,2.0,9.0,91,0.00,,,0.02,VWS V14.01,2013-02-03 08:58:00,
2013-02-03 04:03:00,29.4,26.8,29.99,WSW,258,1.0,9.0,90,0.00,,,0.02,VWS V14.01,2013-02-03 09:03:00,
2013-02-03 04:08:00,29.3,26.7,29.99,WSW,255,1.0,9.0,90,0.00,,,0.02,VWS V14.01,2013-02-03 09:08:00,
2013-02-03 04:13:00,29.3,26.7,29.99,West,278,1.0,9.0,90,0.00,,,0.02,VWS V14.01,2013-02-03 09:13:00,
2013-02-03 04:18:00,29.3,26.7,29.99,SSW,207,2.0,9.0,90,0.00,,,0.02,VWS V14.01,2013-02-03 09:18:00,
2013-02-03 04:23:00,29.4,26.8,29.99,WSW,254,3.0,9.0,90,0.00,,,0.02,VWS V14.01,2013-02-03 09:23:00,
2013-02-03 04:28:00,29.4,26.6,29.99,West,261,2.0,9.0,89,0.00,,,0.02,VWS V14.01,2013-02-03 09:28:00,
2013-02-03 04:33:00,29.5,26.7,29.99,West,263,2.0,9.0,89,0.00,,,0.02,VWS V14.01,2013-02-03 09:33:00,
2013-02-03 04:38:00,29.5,26.4,29.97,West,264,4.0,9.0,88,0.00,,,0.02,VWS V14.01,2013-02-03 09:38:00,
2013-02-03 04:43:00,29.5,26.4,29.97,SW,219,2.0,9.0,88,0.00,,,0.02,VWS V14.01,2013-02-03 09:43:00,
2013-02-03 04:48:00,29.5,26.4,29.97,NNW,344,4.0,9.0,88,0.00,,,0.02,VWS V14.01,2013-02-03 09:48:00,
2013-02-03 04:53:00,29.5,26.4,29.97,SSW,209,0.0,9.0,88,0.00,,,0.02,VWS V14.01,2013-02-03 09:53:00,
2013-02-03 04:58:00,29.5,26.4,29.97,West,281,0.0,9.0,88,0.00,,,0.02,VWS V14.01,2013-02-03 09:58:00,
2013-02-03 05:03:00,29.5,26.7,29.97,WNW,291,0.0,9.0,89,0.00,,,0.02,VWS V14.01,2013-02-03 10:03:00,
2013-02-03 05:08:00,29.5,26.7,29.97,West,263,1.0,9.0,89,0.00,,,0.02,VWS V14.01,2013-02-03 10:08:00,
2013-02-03 05:14:00,29.5,26.7,29.97,West,271,0.0,9.0,89,0.00,,,0.02,VWS V14.01,2013-02-03 10:14:00,
2013-02-03 05:19:00,29.5,26.7,29.97,SW,232,1.0,9.0,89,0.00,,,0.02,VWS V14.01,2013-02-03 10:19:00,
2013-02-03 05:24:00,29.7,26.9,29.97,West,259,0.0,9.0,89,0.00,,,0.02,VWS V14.01,2013-02-03 10:24:00,
2013-02-03 05:29:00,29.5,26.7,29.97,SW,228,1.0,9.0,89,0.00,,,0.02,VWS V14.01,2013-02-03 10:29:00,
2013-02-03 05:34:00,29.5,26.9,29.97,SW,235,1.0,9.0,90,0.00,,,0.02,VWS V14.01,2013-02-03 10:34:00,
2013-02-03 05:39:00,29.5,26.9,29.97,WSW,255,2.0,9.0,90,0.00,,,0.02,VWS V14.01,2013-02-03 10:39:00,
2013-02-03 05:44:00,29.5,26.9,29.97,WNW,286,0.0,9.0,90,0.00,,,0.02,VWS V14.01,2013-02-03 10:44:00,
2013-02-03 05:49:00,29.5,26.9,29.97,WNW,286,0.0,9.0,90,0.00,,,0.02,VWS V14.01,2013-02-03 10:49:00,
2013-02-03 05:54:00,29.5,27.2,29.96,WNW,286,0.0,9.0,91,0.00,,,0.02,VWS V14.01,2013-02-03 10:54:00,
2013-02-03 05:59:00,29.5,27.2,29.96,WNW,283,0.0,9.0,91,0.00,,,0.02,VWS V14.01,2013-02-03 10:59:00,
2013-02-03 06:04:00,29.5,27.2,29.96,WSW,242,0.0,9.0,91,0.00,,,0.02,VWS V14.01,2013-02-03 11:04:00,
2013-02-03 06:09:00,29.5,27.2,29.96,West,266,1.0,9.0,91,0.00,,,0.02,VWS V14.01,2013-02-03 11:09:00,
2013-02-03 06:14:00,29.5,27.2,29.96,WSW,254,2.0,9.0,91,0.00,,,0.02,VWS V14.01,2013-02-03 11:14:00,
2013-02-03 06:19:00,29.5,27.2,29.96,WSW,242,2.0,9.0,91,0.00,,,0.02,VWS V14.01,2013-02-03 11:19:00,
2013-02-03 06:24:00,29.5,27.2,29.95,WSW,252,2.0,9.0,91,0.00,,,0.02,VWS V14.01,2013-02-03 11:24:00,
2013-02-03 06:29:00,29.5,27.5,29.95,WSW,254,1.0,9.0,92,0.00,,,0.02,VWS V14.01,2013-02-03 11:29:00,
2013-02-03 06:34:00,29.5,27.5,29.95,WSW,257,2.0,9.0,92,0.00,,,0.02,VWS V14.01,2013-02-03 11:34:00,
2013-02-03 06:39:00,29.5,27.5,29.95,WSW,249,1.0,9.0,92,0.00,,,0.02,VWS V14.01,2013-02-03 11:39:00,
2013-02-03 06:45:00,29.5,27.5,29.95,WSW,250,1.0,9.0,92,0.00,,,0.02,VWS V14.01,2013-02-03 11:45:00,
2013-02-03 06:50:00,29.7,27.7,29.94,West,278,3.0,9.0,92,0.00,,,0.02,VWS V14.01,2013-02-03 11:50:00,
2013-02-03 06:55:00,29.7,27.4,29.94,WNW,285,1.0,9.0,91,0.00,,,0.02,VWS V14.01,2013-02-03 11:55:00,
2013-02-03 07:00:00,29.8,27.5,29.94,SW,225,0.0,9.0,91,0.00,,,0.02,VWS V14.01,2013-02-03 12:00:00,
2013-02-03 07:05:00,29.8,27.5,29.95,WSW,258,1.0,9.0,91,0.00,,,0.02,VWS V14.01,2013-02-03 12:05:00,
2013-02-03 07:10:00,29.8,27.5,29.95,West,279,3.0,9.0,91,0.00,,,0.02,VWS V14.01,2013-02-03 12:10:00,
2013-02-03 07:15:00,29.8,27.5,29.95,WSW,257,3.0,9.0,91,0.00,,,0.02,VWS V14.01,2013-02-03 12:15:00,
2013-02-03 07:20:00,29.8,27.5,29.94,SW,230,2.0,9.0,91,0.00,,,0.02,VWS V14.01,2013-02-03 12:20:00,
2013-02-03 07:25:00,30.0,27.4,29.94,WSW,242,1.0,9.0,90,0.00,,,0.02,VWS V14.01,2013-02-03 12:25:00,
2013-02-03 07:30:00,29.8,27.5,29.94,West,262,1.0,9.0,91,0.00,,,0.02,VWS V14.01,2013-02-03 12:30:00,
2013-02-03 07:35:00,29.8,27.5,29.94,West,269,1.0,9.0,91,0.00,,,0.02,VWS V14.01,2013-02-03 12:35:00,
2013-02-03 07:40:00,29.8,27.5,29.94,SW,220,1.0,9.0,91,0.00,,,0.02,VWS V14.01,2013-02-03 12:40:00,
2013-02-03 07:45:00,29.8,27.5,29.94,NE,34,2.0,9.0,91,0.00,,,0.02,VWS V14.01,2013-02-03 12:45:00,
2013-02-03 07:50:00,29.8,27.5,29.94,NNE,32,0.0,9.0,91,0.00,,,0.02,VWS V14.01,2013-02-03 12:50:00,
2013-02-03 07:55:00,29.8,27.8,29.94,SE,146,1.0,9.0,92,0.00,,,0.02,VWS V14.01,2013-02-03 12:55:00,
2013-02-03 08:01:00,29.8,27.8,29.94,WSW,246,3.0,9.0,92,0.00,,,0.02,VWS V14.01,2013-02-03 13:01:00,
2013-02-03 08:06:00,29.8,27.8,29.94,WSW,240,0.0,9.0,92,0.00,,,0.02,VWS V14.01,2013-02-03 13:06:00,
2013-02-03 08:11:00,29.8,27.8,29.94,South,186,1.0,9.0,92,0.00,,,0.02,VWS V14.01,2013-02-03 13:11:00,
2013-02-03 08:16:00,29.8,27.8,29.94,WSW,239,2.0,9.0,92,0.00,,,0.02,VWS V14.01,2013-02-03 13:16:00,
2013-02-03 08:21:00,30.0,28.0,29.94,West,266,3.0,9.0,92,0.00,,,0.02,VWS V14.01,2013-02-03 13:21:00,
2013-02-03 08:26:00,30.0,28.0,29.94,WSW,251,0.0,9.0,92,0.00,,,0.02,VWS V14.01,2013-02-03 13:26:00,
2013-02-03 08:31:00,30.0,28.0,29.94,West,278,0.0,9.0,92,0.00,,,0.02,VWS V14.01,2013-02-03 13:31:00,
2013-02-03 08:36:00,30.1,28.1,29.94,SW,231,1.0,9.0,92,0.00,,,0.02,VWS V14.01,2013-02-03 13:36:00,
2013-02-03 08:41:00,30.1,28.1,29.94,West,262,2.0,9.0,92,0.00,,,0.02,VWS V14.01,2013-02-03 13:41:00,
2013-02-03 08:46:00,30.1,28.3,29.94,West,281,2.0,9.0,93,0.00,,,0.02,VWS V14.01,2013-02-03 13:46:00,
2013-02-03 08:51:00,30.1,28.3,29.94,WSW,257,2.0,9.0,93,0.00,,,0.02,VWS V14.01,2013-02-03 13:51:00,
2013-02-03 08:56:00,30.1,28.3,29.94,WSW,244,0.0,9.0,93,0.00,,,0.02,VWS V14.01,2013-02-03 13:56:00,
2013-02-03 09:02:00,30.1,28.3,29.94,WNW,297,2.0,9.0,93,0.00,,,0.02,VWS V14.01,2013-02-03 14:02:00,
2013-02-03 09:07:00,30.3,28.5,29.94,SW,220,2.0,9.0,93,0.00,,,0.02,VWS V14.01,2013-02-03 14:07:00,
2013-02-03 09:12:00,30.3,28.5,29.94,WSW,257,0.0,9.0,93,0.00,,,0.02,VWS V14.01,2013-02-03 14:12:00,
2013-02-03 09:17:00,30.3,28.5,29.94,WNW,288,1.0,9.0,93,0.00,,,0.02,VWS V14.01,2013-02-03 14:17:00,
2013-02-03 09:22:00,30.3,28.5,29.94,West,261,3.0,9.0,93,0.00,,,0.02,VWS V14.01,2013-02-03 14:22:00,
2013-02-03 09:27:00,30.4,28.6,29.94,West,273,3.0,9.0,93,0.00,,,0.02,VWS V14.01,2013-02-03 14:27:00,
2013-02-03 09:32:00,30.4,28.6,29.94,WNW,294,0.0,9.0,93,0.00,,,0.02,VWS V14.01,2013-02-03 14:32:00,
2013-02-03 09:37:00,30.6,28.8,29.93,WSW,244,2.0,9.0,93,0.00,,,0.02,VWS V14.01,2013-02-03 14:37:00,
2013-02-03 09:42:00,30.7,28.9,29.93,SW,236,2.0,9.0,93,0.00,,,0.02,VWS V14.01,2013-02-03 14:42:00,
2013-02-03 09:47:00,30.7,28.9,29.93,SW,236,0.0,9.0,93,0.00,,,0.02,VWS V14.01,2013-02-03 14:47:00,
2013-02-03 09:52:00,30.7,28.9,29.93,WSW,244,2.0,9.0,93,0.00,,,0.02,VWS V14.01,2013-02-03 14:52:00,
2013-02-03 09:57:00,30.9,29.1,29.93,WNW,290,1.0,9.0,93,0.00,,,0.02,VWS V14.01,2013-02-03 14:57:00,
2013-02-03 10:02:00,30.9,29.1,29.93,SSW,209,2.0,9.0,93,0.00,,,0.02,VWS V14.01,2013-02-03 15:02:00,
2013-02-03 10:07:00,31.0,29.2,29.93,WSW,251,3.0,9.0,93,0.01,,,0.03,VWS V14.01,2013-02-03 15:07:00,
2013-02-03 10:12:00,31.0,29.2,29.93,WSW,253,3.0,9.0,93,0.01,,,0.03,VWS V14.01,2013-02-03 15:12:00,
2013-02-03 10:18:00,31.0,29.2,29.93,South,184,1.0,9.0,93,0.01,,,0.03,VWS V14.01,2013-02-03 15:18:00,
2013-02-03 10:23:00,31.2,29.4,29.93,South,191,0.0,9.0,93,0.01,,,0.03,VWS V14.01,2013-02-03 15:23:00,
2013-02-03 10:28:00,31.3,29.5,29.93,WSW,250,0.0,9.0,93,0.01,,,0.03,VWS V14.01,2013-02-03 15:28:00,
2013-02-03 10:33:00,31.3,29.5,29.93,WSW,254,2.0,9.0,93,0.01,,,0.03,VWS V14.01,2013-02-03 15:33:00,
2013-02-03 10:38:00,31.3,29.5,29.93,SW,228,1.0,9.0,93,0.01,,,0.03,VWS V14.01,2013-02-03 15:38:00,
2013-02-03 10:43:00,31.3,29.5,29.93,WSW,248,4.0,9.0,93,0.01,,,0.03,VWS V14.01,2013-02-03 15:43:00,
2013-02-03 10:48:00,31.3,29.5,29.93,West,274,0.0,9.0,93,0.02,,,0.04,VWS V14.01,2013-02-03 15:48:00,
2013-02-03 10:53:00,31.5,30.0,29.93,WSW,246,0.0,9.0,94,0.02,,,0.04,VWS V14.01,2013-02-03 15:53:00,
2013-02-03 10:58:00,31.6,30.1,29.93,SW,230,0.0,9.0,94,0.02,,,0.04,VWS V14.01,2013-02-03 15:58:00,
2013-02-03 11:03:00,31.6,30.1,29.93,WSW,238,0.0,9.0,94,0.02,,,0.04,VWS V14.01,2013-02-03 16:03:00,
2013-02-03 11:08:00,31.8,30.3,29.92,WSW,257,1.0,9.0,94,0.01,,,0.04,VWS V14.01,2013-02-03 16:08:00,
2013-02-03 11:13:00,31.8,30.3,29.92,WNW,296,0.0,9.0,94,0.01,,,0.04,VWS V14.01,2013-02-03 16:13:00,
2013-02-03 11:18:00,31.8,30.3,29.92,SSW,194,2.0,9.0,94,0.01,,,0.04,VWS V14.01,2013-02-03 16:18:00,
2013-02-03 11:23:00,31.9,30.4,29.91,WSW,255,2.0,9.0,94,0.01,,,0.04,VWS V14.01,2013-02-03 16:23:00,
2013-02-03 11:28:00,31.9,30.4,29.91,SW,232,0.0,9.0,94,0.01,,,0.04,VWS V14.01,2013-02-03 16:28:00,
2013-02-03 11:33:00,32.1,30.6,29.91,SSW,212,1.0,9.0,94,0.01,,,0.04,VWS V14.01,2013-02-03 16:33:00,
2013-02-03 11:38:00,32.1,30.6,29.92,West,269,3.0,9.0,94,0.01,,,0.04,VWS V14.01,2013-02-03 16:38:00,
2013-02-03 11:43:00,32.1,30.6,29.92,WNW,286,1.0,9.0,94,0.01,,,0.04,VWS V14.01,2013-02-03 16:43:00,
2013-02-03 11:49:00,32.1,30.6,29.92,WSW,254,3.0,9.0,94,0.01,,,0.04,VWS V14.01,2013-02-03 16:49:00,
2013-02-03 11:54:00,32.1,30.6,29.91,WSW,256,0.0,9.0,94,0.00,,,0.04,VWS V14.01,2013-02-03 16:54:00,
2013-02-03 11:59:00,32.1,30.6,29.91,West,275,2.0,9.0,94,0.00,,,0.04,VWS V14.01,2013-02-03 16:59:00,
2013-02-03 12:04:00,32.1,30.6,29.91,South,180,3.0,9.0,94,0.00,,,0.04,VWS V14.01,2013-02-03 17:04:00,
2013-02-03 12:09:00,32.1,30.6,29.92,West,259,2.0,9.0,94,0.00,,,0.04,VWS V14.01,2013-02-03 17:09:00,
2013-02-03 12:14:00,32.1,30.6,29.92,WNW,287,2.0,9.0,94,0.00,,,0.04,VWS V14.01,2013-02-03 17:14:00,
2013-02-03 12:19:00,32.1,30.6,29.92,WSW,249,0.0,9.0,94,0.00,,,0.04,VWS V14.01,2013-02-03 17:19:00,
2013-02-03 12:24:00,32.1,30.6,29.92,WSW,238,2.0,9.0,94,0.00,,,0.04,VWS V14.01,2013-02-03 17:24:00,
2013-02-03 12:29:00,31.9,30.4,29.92,West,260,0.0,9.0,94,0.00,,,0.04,VWS V14.01,2013-02-03 17:29:00,
2013-02-03 12:34:00,32.1,30.6,29.92,WSW,242,2.0,9.0,94,0.00,,,0.04,VWS V14.01,2013-02-03 17:34:00,
2013-02-03 12:39:00,32.1,30.6,29.91,SW,226,1.0,9.0,94,0.00,,,0.04,VWS V14.01,2013-02-03 17:39:00,
2013-02-03 12:44:00,32.1,30.6,29.91,West,271,1.0,9.0,94,0.00,,,0.04,VWS V14.01,2013-02-03 17:44:00,
2013-02-03 12:49:00,32.2,30.7,29.91,WSW,248,7.0,9.0,94,0.00,,,0.04,VWS V14.01,2013-02-03 17:49:00,
2013-02-03 12:54:00,32.1,30.6,29.92,SW,225,1.0,9.0,94,0.00,,,0.04,VWS V14.01,2013-02-03 17:54:00,
2013-02-03 12:59:00,32.2,30.7,29.92,SSW,201,0.0,9.0,94,0.00,,,0.04,VWS V14.01,2013-02-03 17:59:00,
2013-02-03 13:05:00,32.4,30.9,29.92,WNW,298,3.0,9.0,94,0.00,,,0.04,VWS V14.01,2013-02-03 18:05:00,
2013-02-03 13:10:00,32.5,31.0,29.91,SSE,156,1.0,9.0,94,0.00,,,0.04,VWS V14.01,2013-02-03 18:10:00,
2013-02-03 13:15:00,32.5,31.0,29.91,WSW,237,1.0,9.0,94,0.00,,,0.04,VWS V14.01,2013-02-03 18:15:00,
2013-02-03 13:20:00,32.5,31.0,29.91,WSW,238,0.0,9.0,94,0.00,,,0.04,VWS V14.01,2013-02-03 18:20:00,
2013-02-03 13:25:00,32.7,30.9,29.91,South,181,2.0,9.0,93,0.00,,,0.04,VWS V14.01,2013-02-03 18:25:00,
2013-02-03 13:30:00,32.7,30.9,29.91,WNW,288,6.0,9.0,93,0.00,,,0.04,VWS V14.01,2013-02-03 18:30:00,
2013-02-03 13:35:00,32.8,30.7,29.92,SW,236,4.0,9.0,92,0.00,,,0.04,VWS V14.01,2013-02-03 18:35:00,
2013-02-03 13:40:00,32.8,30.7,29.92,NW,321,3.0,9.0,92,0.00,,,0.04,VWS V14.01,2013-02-03 18:40:00,
2013-02-03 13:45:00,32.9,30.8,29.92,West,261,1.0,9.0,92,0.00,,,0.04,VWS V14.01,2013-02-03 18:45:00,
2013-02-03 13:50:00,32.9,30.8,29.92,West,280,2.0,9.0,92,0.00,,,0.04,VWS V14.01,2013-02-03 18:50:00,
2013-02-03 13:55:00,33.1,30.8,29.92,West,259,1.0,9.0,91,0.00,,,0.04,VWS V14.01,2013-02-03 18:55:00,
2013-02-03 14:00:00,33.1,30.5,29.92,WSW,252,0.0,9.0,90,0.00,,,0.04,VWS V14.01,2013-02-03 19:00:00,
2013-02-03 14:05:00,33.2,30.6,29.93,West,259,0.0,9.0,90,0.00,,,0.04,VWS V14.01,2013-02-03 19:05:00,
2013-02-03 14:10:00,33.4,30.8,29.93,WSW,241,5.0,9.0,90,0.00,,,0.04,VWS V14.01,2013-02-03 19:10:00,
2013-02-03 14:15:00,33.4,30.5,29.93,WSW,246,3.0,9.0,89,0.00,,,0.04,VWS V14.01,2013-02-03 19:15:00,
2013-02-03 14:20:00,33.5,30.3,29.93,West,270,4.0,9.0,88,0.00,,,0.04,VWS V14.01,2013-02-03 19:20:00,
2013-02-03 14:25:00,33.5,30.3,29.93,West,273,2.0,9.0,88,0.00,,,0.04,VWS V14.01,2013-02-03 19:25:00,
2013-02-03 14:31:00,33.5,30.0,29.93,South,175,3.0,9.0,87,0.00,,,0.04,VWS V14.01,2013-02-03 19:31:00,
2013-02-03 14:36:00,33.5,30.3,29.94,NNW,327,7.0,9.0,88,0.00,,,0.04,VWS V14.01,2013-02-03 19:36:00,
2013-02-03 14:41:00,33.4,29.7,29.94,West,267,4.0,9.0,86,0.00,,,0.04,VWS V14.01,2013-02-03 19:41:00,
2013-02-03 14:46:00,33.4,29.7,29.94,ENE,60,2.0,9.0,86,0.00,,,0.04,VWS V14.01,2013-02-03 19:46:00,
2013-02-03 14:51:00,33.4,29.4,29.94,West,281,2.0,9.0,85,0.00,,,0.04,VWS V14.01,2013-02-03 19:51:00,
2013-02-03 14:56:00,33.5,29.8,29.94,SSW,208,5.0,9.0,86,0.00,,,0.04,VWS V14.01,2013-02-03 19:56:00,
2013-02-03 15:01:00,33.5,29.2,29.94,West,279,6.0,9.0,84,0.00,,,0.04,VWS V14.01,2013-02-03 20:01:00,
2013-02-03 15:06:00,33.7,29.4,29.95,WSW,244,4.0,9.0,84,0.00,,,0.04,VWS V14.01,2013-02-03 20:06:00,
2013-02-03 15:11:00,33.7,29.1,29.95,West,278,3.0,9.0,83,0.00,,,0.04,VWS V14.01,2013-02-03 20:11:00,
2013-02-03 15:16:00,33.8,29.2,29.95,WNW,301,1.0,9.0,83,0.00,,,0.04,VWS V14.01,2013-02-03 20:16:00,
2013-02-03 15:21:00,33.8,29.2,29.96,NW,307,5.0,9.0,83,0.00,,,0.04,VWS V14.01,2013-02-03 20:21:00,
2013-02-03 15:26:00,33.5,28.3,29.96,West,266,3.0,9.0,81,0.00,,,0.04,VWS V14.01,2013-02-03 20:26:00,
2013-02-03 15:31:00,33.4,28.2,29.96,SW,221,3.0,9.0,81,0.00,,,0.04,VWS V14.01,2013-02-03 20:31:00,
2013-02-03 15:37:00,33.4,28.2,29.96,WNW,290,3.0,9.0,81,0.00,,,0.04,VWS V14.01,2013-02-03 20:37:00,
2013-02-03 15:42:00,33.4,28.5,29.96,NNW,328,3.0,9.0,82,0.00,,,0.04,VWS V14.01,2013-02-03 20:42:00,
2013-02-03 15:47:00,33.5,28.3,29.96,SW,235,2.0,9.0,81,0.00,,,0.04,VWS V14.01,2013-02-03 20:47:00,
2013-02-03 15:52:00,33.5,28.0,29.97,WSW,247,3.0,9.0,80,0.00,,,0.04,VWS V14.01,2013-02-03 20:52:00,
2013-02-03 15:57:00,33.4,27.9,29.97,SSW,213,4.0,9.0,80,0.00,,,0.04,VWS V14.01,2013-02-03 20:57:00,
2013-02-03 16:02:00,33.4,27.6,29.97,NNW,348,6.0,9.0,79,0.00,,,0.04,VWS V14.01,2013-02-03 21:02:00,
2013-02-03 16:07:00,33.2,28.0,29.98,WNW,285,1.0,9.0,81,0.00,,,0.04,VWS V14.01,2013-02-03 21:07:00,
2013-02-03 16:12:00,33.1,27.6,29.98,WNW,293,3.0,9.0,80,0.00,,,0.04,VWS V14.01,2013-02-03 21:12:00,
2013-02-03 16:17:00,33.1,27.6,29.98,SW,229,1.0,9.0,80,0.00,,,0.04,VWS V14.01,2013-02-03 21:17:00,
2013-02-03 16:22:00,33.2,27.7,29.99,NNW,346,7.0,9.0,80,0.00,,,0.04,VWS V14.01,2013-02-03 21:22:00,
2013-02-03 16:27:00,33.2,27.7,29.99,WSW,247,0.0,9.0,80,0.00,,,0.04,VWS V14.01,2013-02-03 21:27:00,
2013-02-03 16:32:00,33.2,27.7,29.99,SW,235,5.0,9.0,80,0.00,,,0.04,VWS V14.01,2013-02-03 21:32:00,
2013-02-03 16:37:00,33.2,27.7,29.99,West,269,0.0,9.0,80,0.00,,,0.04,VWS V14.01,2013-02-03 21:37:00,
2013-02-03 16:42:00,33.2,28.0,29.99,West,271,0.0,9.0,81,0.00,,,0.04,VWS V14.01,2013-02-03 21:42:00,
2013-02-03 16:47:00,33.1,27.9,29.99,SW,235,2.0,9.0,81,0.00,,,0.04,VWS V14.01,2013-02-03 21:47:00,
2013-02-03 16:52:00,33.1,27.9,29.99,WSW,250,1.0,9.0,81,0.00,,,0.04,VWS V14.01,2013-02-03 21:52:00,
2013-02-03 16:58:00,32.9,27.7,29.99,SSW,209,1.0,9.0,81,0.00,,,0.04,VWS V14.01,2013-02-03 21:58:00,
2013-02-03 17:03:00,32.8,27.9,29.99,West,278,2.0,9.0,82,0.00,,,0.04,VWS V14.01,2013-02-03 22:03:00,
2013-02-03 17:08:00,32.8,27.9,29.99,WNW,286,0.0,9.0,82,0.00,,,0.04,VWS V14.01,2013-02-03 22:08:00,
2013-02-03 17:13:00,32.8,28.2,29.99,NW,306,1.0,9.0,83,0.00,,,0.04,VWS V14.01,2013-02-03 22:13:00,
2013-02-03 17:18:00,32.7,27.8,29.99,NW,304,3.0,9.0,82,0.00,,,0.04,VWS V14.01,2013-02-03 22:18:00,
2013-02-03 17:23:00,32.7,27.8,30.00,South,170,2.0,9.0,82,0.00,,,0.04,VWS V14.01,2013-02-03 22:23:00,
2013-02-03 17:28:00,32.7,27.5,30.00,WSW,246,1.0,9.0,81,0.00,,,0.04,VWS V14.01,2013-02-03 22:28:00,
2013-02-03 17:33:00,32.8,27.6,30.00,NNW,334,3.0,9.0,81,0.00,,,0.04,VWS V14.01,2013-02-03 22:33:00,
2013-02-03 17:38:00,32.8,27.6,30.00,West,269,3.0,9.0,81,0.00,,,0.04,VWS V14.01,2013-02-03 22:38:00,
2013-02-03 17:43:00,32.7,26.9,30.00,WNW,288,7.0,9.0,79,0.00,,,0.04,VWS V14.01,2013-02-03 22:43:00,
2013-02-03 17:48:00,32.7,26.9,30.00,WSW,250,2.0,9.0,79,0.00,,,0.04,VWS V14.01,2013-02-03 22:48:00,
2013-02-03 17:53:00,32.5,26.1,30.01,WSW,238,3.0,9.0,77,0.00,,,0.04,VWS V14.01,2013-02-03 22:53:00,
2013-02-03 17:58:00,32.5,26.1,30.01,SE,142,3.0,9.0,77,0.00,,,0.04,VWS V14.01,2013-02-03 22:58:00,
2013-02-03 18:03:00,32.5,26.1,30.01,West,279,0.0,9.0,77,0.00,,,0.04,VWS V14.01,2013-02-03 23:03:00,
2013-02-03 18:08:00,32.5,26.1,30.01,South,188,3.0,9.0,77,0.00,,,0.04,VWS V14.01,2013-02-03 23:08:00,
2013-02-03 18:13:00,32.5,25.8,30.01,WNW,283,1.0,9.0,76,0.00,,,0.04,VWS V14.01,2013-02-03 23:13:00,
2013-02-03 18:18:00,32.5,25.8,30.01,SW,232,4.0,9.0,76,0.00,,,0.04,VWS V14.01,2013-02-03 23:18:00,
2013-02-03 18:23:00,32.4,25.4,30.02,WSW,240,3.0,9.0,75,0.00,,,0.04,VWS V14.01,2013-02-03 23:23:00,
2013-02-03 18:29:00,32.4,25.7,30.02,West,261,4.0,9.0,76,0.00,,,0.04,VWS V14.01,2013-02-03 23:29:00,
2013-02-03 18:34:00,32.4,26.0,30.02,West,273,3.0,9.0,77,0.00,,,0.04,VWS V14.01,2013-02-03 23:34:00,
2013-02-03 18:39:00,32.4,26.0,30.02,WNW,288,1.0,9.0,77,0.00,,,0.04,VWS V14.01,2013-02-03 23:39:00,
2013-02-03 18:44:00,32.4,26.3,30.02,SE,142,1.0,9.0,78,0.00,,,0.04,VWS V14.01,2013-02-03 23:44:00,
2013-02-03 18:49:00,32.2,25.8,30.02,SSW,211,4.0,9.0,77,0.00,,,0.04,VWS V14.01,2013-02-03 23:49:00,
2013-02-03 18:54:00,32.2,25.5,30.03,West,273,4.0,9.0,76,0.00,,,0.04,VWS V14.01,2013-02-03 23:54:00,
2013-02-03 18:59:00,32.2,25.5,30.03,SW,228,4.0,9.0,76,0.00,,,0.04,VWS V14.01,2013-02-03 23:59:00,
2013-02-03 19:04:00,32.2,25.8,30.03,WSW,244,3.0,9.0,77,0.00,,,0.04,VWS V14.01,2013-02-04 00:04:00,
2013-02-03 19:09:00,32.1,25.7,30.04,WSW,254,2.0,9.0,77,0.00,,,0.04,VWS V14.01,2013-02-04 00:09:00,
2013-02-03 19:14:00,32.1,25.7,30.04,West,277,5.0,9.0,77,0.00,,,0.04,VWS V14.01,2013-02-04 00:14:00,
2013-02-03 19:19:00,31.9,24.9,30.04,SW,236,6.0,9.0,75,0.00,,,0.04,VWS V14.01,2013-02-04 00:19:00,
2013-02-03 19:24:00,31.6,24.0,30.06,SW,230,3.0,9.0,73,0.00,,,0.04,VWS V14.01,2013-02-04 00:24:00,
2013-02-03 19:29:00,31.5,23.9,30.06,SSW,194,5.0,9.0,73,0.00,,,0.04,VWS V14.01,2013-02-04 00:29:00,
2013-02-03 19:34:00,31.3,23.7,30.06,SSW,205,5.0,9.0,73,0.00,,,0.04,VWS V14.01,2013-02-04 00:34:00,
2013-02-03 19:40:00,31.3,23.7,30.06,West,265,3.0,9.0,73,0.00,,,0.04,VWS V14.01,2013-02-04 00:40:00,
2013-02-03 19:45:00,31.2,23.6,30.06,SSW,207,5.0,9.0,73,0.00,,,0.04,VWS V14.01,2013-02-04 00:45:00,
2013-02-03 19:50:00,31.2,23.9,30.07,SW,214,3.0,9.0,74,0.00,,,0.04,VWS V14.01,2013-02-04 00:50:00,
2013-02-03 19:55:00,31.0,23.7,30.07,West,271,4.0,9.0,74,0.00,,,0.04,VWS V14.01,2013-02-04 00:55:00,
2013-02-03 20:00:00,30.9,23.6,30.07,West,277,4.0,9.0,74,0.00,,,0.04,VWS V14.01,2013-02-04 01:00:00,
2013-02-03 20:05:00,30.9,23.9,30.07,WSW,252,1.0,9.0,75,0.00,,,0.04,VWS V14.01,2013-02-04 01:05:00,
2013-02-03 20:10:00,30.9,23.9,30.07,NW,313,1.0,9.0,75,0.00,,,0.04,VWS V14.01,2013-02-04 01:10:00,
2013-02-03 20:15:00,30.9,24.2,30.07,West,270,1.0,9.0,76,0.00,,,0.04,VWS V14.01,2013-02-04 01:15:00,
2013-02-03 20:20:00,30.9,24.2,30.08,West,275,3.0,9.0,76,0.00,,,0.04,VWS V14.01,2013-02-04 01:20:00,
2013-02-03 20:25:00,30.9,24.5,30.08,WNW,287,2.0,9.0,77,0.00,,,0.04,VWS V14.01,2013-02-04 01:25:00,
2013-02-03 20:30:00,30.9,24.2,30.08,WSW,244,6.0,9.0,76,0.00,,,0.04,VWS V14.01,2013-02-04 01:30:00,
2013-02-03 20:35:00,30.7,24.0,30.08,West,272,0.0,9.0,76,0.00,,,0.04,VWS V14.01,2013-02-04 01:35:00,
2013-02-03 20:40:00,30.6,23.6,30.08,WNW,294,5.0,9.0,75,0.00,,,0.04,VWS V14.01,2013-02-04 01:40:00,
2013-02-03 20:45:00,30.6,23.6,30.08,SSW,201,2.0,9.0,75,0.00,,,0.04,VWS V14.01,2013-02-04 01:45:00,
2013-02-03 20:50:00,30.4,22.8,30.09,SW,220,3.0,9.0,73,0.00,,,0.04,VWS V14.01,2013-02-04 01:50:00,
2013-02-03 20:55:00,30.3,23.0,30.09,WNW,300,0.0,9.0,74,0.00,,,0.04,VWS V14.01,2013-02-04 01:55:00,
2013-02-03 21:01:00,30.0,22.4,30.09,SW,222,1.0,9.0,73,0.00,,,0.04,VWS V14.01,2013-02-04 02:01:00,
2013-02-03 21:06:00,30.0,22.4,30.10,South,169,1.0,9.0,73,0.00,,,0.04,VWS V14.01,2013-02-04 02:06:00,
2013-02-03 21:11:00,29.8,21.6,30.10,West,270,7.0,9.0,71,0.00,,,0.04,VWS V14.01,2013-02-04 02:11:00,
2013-02-03 21:16:00,29.5,20.9,30.10,SW,220,4.0,9.0,70,0.00,,,0.04,VWS V14.01,2013-02-04 02:16:00,
2013-02-03 21:21:00,29.4,20.5,30.10,WSW,245,2.0,9.0,69,0.00,,,0.04,VWS V14.01,2013-02-04 02:21:00,
2013-02-03 21:26:00,29.3,20.4,30.10,WNW,300,2.0,9.0,69,0.00,,,0.04,VWS V14.01,2013-02-04 02:26:00,
2013-02-03 21:31:00,29.1,19.5,30.10,South,177,2.0,9.0,67,0.00,,,0.04,VWS V14.01,2013-02-04 02:31:00,
2013-02-03 21:36:00,29.1,19.9,30.10,WNW,284,7.0,9.0,68,0.00,,,0.04,VWS V14.01,2013-02-04 02:36:00,
2013-02-03 21:41:00,29.1,20.2,30.10,SSW,213,2.0,9.0,69,0.00,,,0.04,VWS V14.01,2013-02-04 02:41:00,
2013-02-03 21:46:00,29.0,20.1,30.10,WSW,238,1.0,9.0,69,0.00,,,0.04,VWS V14.01,2013-02-04 02:46:00,
2013-02-03 21:51:00,29.0,20.1,30.11,South,169,1.0,9.0,69,0.00,,,0.04,VWS V14.01,2013-02-04 02:51:00,
2013-02-03 21:56:00,28.8,19.6,30.11,WSW,247,2.0,9.0,68,0.00,,,0.04,VWS V14.01,2013-02-04 02:56:00,
2013-02-03 22:01:00,28.8,19.6,30.11,WNW,289,3.0,9.0,68,0.00,,,0.04,VWS V14.01,2013-02-04 03:01:00,
2013-02-03 22:06:00,28.8,19.6,30.11,WNW,290,6.0,9.0,68,0.00,,,0.04,VWS V14.01,2013-02-04 03:06:00,
2013-02-03 22:11:00,28.7,19.5,30.11,SSW,202,4.0,9.0,68,0.00,,,0.04,VWS V14.01,2013-02-04 03:11:00,
2013-02-03 22:16:00,28.5,19.0,30.11,SSW,202,2.0,9.0,67,0.00,,,0.04,VWS V14.01,2013-02-04 03:16:00,
2013-02-03 22:21:00,28.5,19.0,30.11,SW,229,3.0,9.0,67,0.00,,,0.04,VWS V14.01,2013-02-04 03:21:00,
2013-02-03 22:26:00,28.4,18.9,30.11,West,276,3.0,9.0,67,0.00,,,0.04,VWS V14.01,2013-02-04 03:26:00,
2013-02-03 22:32:00,28.4,18.9,30.11,WSW,248,2.0,9.0,67,0.00,,,0.04,VWS V14.01,2013-02-04 03:32:00,
2013-02-03 22:37:00,28.4,19.2,30.11,SW,217,3.0,9.0,68,0.00,,,0.04,VWS V14.01,2013-02-04 03:37:00,
2013-02-03 22:42:00,28.2,18.7,30.11,SSW,213,2.0,9.0,67,0.00,,,0.04,VWS V14.01,2013-02-04 03:42:00,
2013-02-03 22:47:00,28.2,19.0,30.11,SW,224,2.0,9.0,68,0.00,,,0.04,VWS V14.01,2013-02-04 03:47:00,
2013-02-03 22:52:00,28.2,19.4,30.11,West,267,0.0,9.0,69,0.00,,,0.04,VWS V14.01,2013-02-04 03:52:00,
2013-02-03 22:57:00,28.2,19.4,30.11,NW,313,0.0,9.0,69,0.00,,,0.04,VWS V14.01,2013-02-04 03:57:00,
2013-02-03 23:02:00,28.2,19.4,30.11,West,271,0.0,9.0,69,0.00,,,0.04,VWS V14.01,2013-02-04 04:02:00,
2013-02-03 23:07:00,28.2,19.4,30.11,WNW,296,2.0,9.0,69,0.00,,,0.04,VWS V14.01,2013-02-04 04:07:00,
2013-02-03 23:12:00,28.2,19.4,30.11,West,260,1.0,9.0,69,0.00,,,0.04,VWS V14.01,2013-02-04 04:12:00,
2013-02-03 23:17:00,28.1,18.9,30.11,West,278,0.0,9.0,68,0.00,,,0.04,VWS V14.01,2013-02-04 04:17:00,
2013-02-03 23:22:00,28.1,18.9,30.11,SW,226,3.0,9.0,68,0.00,,,0.04,VWS V14.01,2013-02-04 04:22:00,
2013-02-03 23:27:00,27.9,18.4,30.11,WSW,240,0.0,9.0,67,0.00,,,0.04,VWS V14.01,2013-02-04 04:27:00,
2013-02-03 23:32:00,27.9,18.0,30.11,WSW,251,7.0,9.0,66,0.00,,,0.04,VWS V14.01,2013-02-04 04:32:00,
2013-02-03 23:37:00,27.9,18.0,30.11,SSW,195,0.0,9.0,66,0.00,,,0.04,VWS V14.01,2013-02-04 04:37:00,
2013-02-03 23:42:00,27.9,18.4,30.11,SW,231,0.0,9.0,67,0.00,,,0.04,VWS V14.01,2013-02-04 04:42:00,
2013-02-03 23:47:00,27.9,18.7,30.11,West,261,2.0,9.0,68,0.00,,,0.04,VWS V14.01,2013-02-04 04:47:00,
2013-02-03 23:53:00,27.9,18.7,30.11,WSW,246,1.0,9.0,68,0.00,,,0.04,VWS V14.01,2013-02-04 04:53:00,
2013-02-03 23:58:00,27.9,18.7,30.11,NW,314,1.0,9.0,68,0.00,,,0.04,VWS V14.01,2013-02-04 04:58:00,